sensor_id;sensor_type;location;lat;lon;timestamp;P1;durP1;ratioP1;P2;durP2;ratioP2
10045;SDS011;5063;50.878;4.742;2022-09-09T00:02:10;4.70;;;1.60;;
10045;SDS011;5063;50.878;4.742;2022-09-09T00:04:43;4.13;;;1.33;;
10045;SDS011;5063;50.878;4.742;2022-09-09T00:07:39;7.10;;;1.50;;
10045;SDS011;5063;50.878;4.742;2022-09-09T00:15:19;2.80;;;1.47;;
10045;SDS011;5063;50.878;4.742;2022-09-09T00:23:28;2.10;;;1.77;;
10045;SDS011;5063;50.878;4.742;2022-09-09T00:28:24;3.77;;;1.60;;
10045;SDS011;5063;50.878;4.742;2022-09-09T00:30:52;2.77;;;1.50;;
10045;SDS011;5063;50.878;4.742;2022-09-09T00:33:22;2.13;;;1.40;;
10045;SDS011;5063;50.878;4.742;2022-09-09T00:35:54;3.03;;;1.67;;
10045;SDS011;5063;50.878;4.742;2022-09-09T00:44:12;3.80;;;1.90;;
10045;SDS011;5063;50.878;4.742;2022-09-09T00:46:56;3.87;;;1.83;;
10045;SDS011;5063;50.878;4.742;2022-09-09T00:58:19;3.90;;;1.80;;
10045;SDS011;5063;50.878;4.742;2022-09-09T01:03:26;2.00;;;1.53;;
10045;SDS011;5063;50.878;4.742;2022-09-09T01:06:02;4.87;;;1.90;;
10045;SDS011;5063;50.878;4.742;2022-09-09T01:16:54;6.43;;;1.87;;
10045;SDS011;5063;50.878;4.742;2022-09-09T01:19:27;2.63;;;1.90;;
10045;SDS011;5063;50.878;4.742;2022-09-09T01:24:42;5.13;;;1.63;;
10045;SDS011;5063;50.878;4.742;2022-09-09T01:27:19;2.07;;;1.63;;
10045;SDS011;5063;50.878;4.742;2022-09-09T01:29:46;4.70;;;1.53;;
10045;SDS011;5063;50.878;4.742;2022-09-09T01:35:04;2.33;;;1.50;;
10045;SDS011;5063;50.878;4.742;2022-09-09T01:37:38;4.60;;;1.60;;
10045;SDS011;5063;50.878;4.742;2022-09-09T01:40:03;3.33;;;1.60;;
10045;SDS011;5063;50.878;4.742;2022-09-09T01:42:30;5.90;;;1.80;;
10045;SDS011;5063;50.878;4.742;2022-09-09T01:44:55;5.50;;;1.97;;
10045;SDS011;5063;50.878;4.742;2022-09-09T01:47:21;3.87;;;1.57;;
10045;SDS011;5063;50.878;4.742;2022-09-09T01:49:47;4.67;;;1.53;;
10045;SDS011;5063;50.878;4.742;2022-09-09T01:52:13;5.03;;;1.70;;
10045;SDS011;5063;50.878;4.742;2022-09-09T01:54:39;5.43;;;1.70;;
10045;SDS011;5063;50.878;4.742;2022-09-09T02:02:41;6.73;;;2.10;;
10045;SDS011;5063;50.878;4.742;2022-09-09T02:05:30;7.23;;;2.17;;
10045;SDS011;5063;50.878;4.742;2022-09-09T02:08:09;8.43;;;2.43;;
10045;SDS011;5063;50.878;4.742;2022-09-09T02:10:45;7.50;;;2.50;;
10045;SDS011;5063;50.878;4.742;2022-09-09T02:13:21;5.50;;;2.20;;
10045;SDS011;5063;50.878;4.742;2022-09-09T02:18:50;5.73;;;2.23;;
10045;SDS011;5063;50.878;4.742;2022-09-09T02:21:14;5.67;;;2.30;;
10045;SDS011;5063;50.878;4.742;2022-09-09T02:23:42;6.53;;;2.13;;
10045;SDS011;5063;50.878;4.742;2022-09-09T02:26:12;4.43;;;2.23;;
10045;SDS011;5063;50.878;4.742;2022-09-09T02:28:44;5.37;;;2.10;;
10045;SDS011;5063;50.878;4.742;2022-09-09T02:31:12;7.10;;;2.37;;
10045;SDS011;5063;50.878;4.742;2022-09-09T02:33:42;4.80;;;2.20;;
10045;SDS011;5063;50.878;4.742;2022-09-09T02:36:12;5.37;;;2.10;;
10045;SDS011;5063;50.878;4.742;2022-09-09T02:38:46;7.27;;;1.77;;
10045;SDS011;5063;50.878;4.742;2022-09-09T02:41:23;6.57;;;2.13;;
10045;SDS011;5063;50.878;4.742;2022-09-09T02:43:56;7.43;;;1.90;;
10045;SDS011;5063;50.878;4.742;2022-09-09T02:49:11;5.77;;;1.87;;
10045;SDS011;5063;50.878;4.742;2022-09-09T02:54:31;7.40;;;2.30;;
10045;SDS011;5063;50.878;4.742;2022-09-09T02:57:01;7.13;;;1.73;;
10045;SDS011;5063;50.878;4.742;2022-09-09T02:59:33;5.47;;;2.17;;
10045;SDS011;5063;50.878;4.742;2022-09-09T03:01:59;3.83;;;2.03;;
10045;SDS011;5063;50.878;4.742;2022-09-09T03:04:26;5.00;;;2.47;;
10045;SDS011;5063;50.878;4.742;2022-09-09T03:06:51;4.90;;;2.03;;
10045;SDS011;5063;50.878;4.742;2022-09-09T03:09:17;3.33;;;1.80;;
10045;SDS011;5063;50.878;4.742;2022-09-09T03:11:43;7.87;;;2.50;;
10045;SDS011;5063;50.878;4.742;2022-09-09T03:14:09;8.60;;;2.67;;
10045;SDS011;5063;50.878;4.742;2022-09-09T03:16:36;9.23;;;2.30;;
10045;SDS011;5063;50.878;4.742;2022-09-09T03:19:02;5.83;;;1.77;;
10045;SDS011;5063;50.878;4.742;2022-09-09T03:21:28;8.67;;;1.97;;
10045;SDS011;5063;50.878;4.742;2022-09-09T03:23:54;5.37;;;2.10;;
10045;SDS011;5063;50.878;4.742;2022-09-09T03:26:20;11.27;;;2.30;;
10045;SDS011;5063;50.878;4.742;2022-09-09T03:28:46;9.67;;;2.33;;
10045;SDS011;5063;50.878;4.742;2022-09-09T03:31:12;3.57;;;2.03;;
10045;SDS011;5063;50.878;4.742;2022-09-09T03:33:37;7.17;;;2.40;;
10045;SDS011;5063;50.878;4.742;2022-09-09T03:36:04;3.03;;;1.63;;
10045;SDS011;5063;50.878;4.742;2022-09-09T03:38:30;8.37;;;2.27;;
10045;SDS011;5063;50.878;4.742;2022-09-09T03:40:57;6.27;;;2.30;;
10045;SDS011;5063;50.878;4.742;2022-09-09T03:43:24;6.57;;;2.50;;
10045;SDS011;5063;50.878;4.742;2022-09-09T03:45:50;9.10;;;2.77;;
10045;SDS011;5063;50.878;4.742;2022-09-09T03:48:16;8.43;;;2.10;;
10045;SDS011;5063;50.878;4.742;2022-09-09T03:50:47;6.60;;;2.37;;
10045;SDS011;5063;50.878;4.742;2022-09-09T03:53:14;7.03;;;2.40;;
10045;SDS011;5063;50.878;4.742;2022-09-09T03:55:44;7.43;;;2.43;;
10045;SDS011;5063;50.878;4.742;2022-09-09T03:58:12;6.57;;;1.77;;
10045;SDS011;5063;50.878;4.742;2022-09-09T04:00:38;4.33;;;2.17;;
10045;SDS011;5063;50.878;4.742;2022-09-09T04:03:08;8.57;;;2.67;;
10045;SDS011;5063;50.878;4.742;2022-09-09T04:05:34;8.07;;;2.13;;
10045;SDS011;5063;50.878;4.742;2022-09-09T04:08:05;4.90;;;2.10;;
10045;SDS011;5063;50.878;4.742;2022-09-09T04:10:33;5.00;;;2.17;;
10045;SDS011;5063;50.878;4.742;2022-09-09T04:13:03;5.53;;;2.20;;
10045;SDS011;5063;50.878;4.742;2022-09-09T04:15:31;5.70;;;2.50;;
10045;SDS011;5063;50.878;4.742;2022-09-09T04:17:58;6.40;;;2.40;;
10045;SDS011;5063;50.878;4.742;2022-09-09T04:20:24;6.57;;;2.20;;
10045;SDS011;5063;50.878;4.742;2022-09-09T04:22:49;6.57;;;1.87;;
10045;SDS011;5063;50.878;4.742;2022-09-09T04:25:15;5.93;;;2.37;;
10045;SDS011;5063;50.878;4.742;2022-09-09T04:27:41;10.43;;;2.57;;
10045;SDS011;5063;50.878;4.742;2022-09-09T04:30:08;8.30;;;2.40;;
10045;SDS011;5063;50.878;4.742;2022-09-09T04:32:34;6.13;;;2.50;;
10045;SDS011;5063;50.878;4.742;2022-09-09T04:35:01;5.53;;;2.23;;
10045;SDS011;5063;50.878;4.742;2022-09-09T04:37:27;9.60;;;2.87;;
10045;SDS011;5063;50.878;4.742;2022-09-09T04:39:53;11.07;;;2.43;;
10045;SDS011;5063;50.878;4.742;2022-09-09T04:42:19;6.47;;;2.27;;
10045;SDS011;5063;50.878;4.742;2022-09-09T04:44:45;7.80;;;2.40;;
10045;SDS011;5063;50.878;4.742;2022-09-09T04:47:11;9.13;;;2.50;;
10045;SDS011;5063;50.878;4.742;2022-09-09T04:49:37;8.93;;;2.50;;
10045;SDS011;5063;50.878;4.742;2022-09-09T04:52:03;16.40;;;3.27;;
10045;SDS011;5063;50.878;4.742;2022-09-09T04:54:29;11.63;;;2.83;;
10045;SDS011;5063;50.878;4.742;2022-09-09T04:56:55;6.67;;;2.43;;
10045;SDS011;5063;50.878;4.742;2022-09-09T04:59:21;8.73;;;2.80;;
10045;SDS011;5063;50.878;4.742;2022-09-09T05:01:47;7.30;;;2.40;;
10045;SDS011;5063;50.878;4.742;2022-09-09T05:04:14;14.37;;;2.80;;
10045;SDS011;5063;50.878;4.742;2022-09-09T05:06:41;10.07;;;2.50;;
10045;SDS011;5063;50.878;4.742;2022-09-09T05:09:07;7.37;;;3.03;;
10045;SDS011;5063;50.878;4.742;2022-09-09T05:11:34;5.57;;;2.50;;
10045;SDS011;5063;50.878;4.742;2022-09-09T05:14:03;10.87;;;3.33;;
10045;SDS011;5063;50.878;4.742;2022-09-09T05:16:29;9.07;;;3.50;;
10045;SDS011;5063;50.878;4.742;2022-09-09T05:18:55;6.97;;;3.23;;
10045;SDS011;5063;50.878;4.742;2022-09-09T05:21:22;11.83;;;3.33;;
10045;SDS011;5063;50.878;4.742;2022-09-09T05:23:50;9.63;;;3.20;;
10045;SDS011;5063;50.878;4.742;2022-09-09T05:26:19;8.37;;;2.90;;
10045;SDS011;5063;50.878;4.742;2022-09-09T05:28:46;8.40;;;2.93;;
10045;SDS011;5063;50.878;4.742;2022-09-09T05:31:12;8.50;;;3.07;;
10045;SDS011;5063;50.878;4.742;2022-09-09T05:33:40;11.23;;;3.60;;
10045;SDS011;5063;50.878;4.742;2022-09-09T05:38:41;8.97;;;2.73;;
10045;SDS011;5063;50.878;4.742;2022-09-09T05:41:08;6.60;;;3.00;;
10045;SDS011;5063;50.878;4.742;2022-09-09T05:43:36;12.27;;;3.20;;
10045;SDS011;5063;50.878;4.742;2022-09-09T05:46:03;7.33;;;2.77;;
10045;SDS011;5063;50.878;4.742;2022-09-09T05:48:41;7.27;;;3.00;;
10045;SDS011;5063;50.878;4.742;2022-09-09T05:51:08;8.83;;;3.03;;
10045;SDS011;5063;50.878;4.742;2022-09-09T05:53:37;9.77;;;3.30;;
10045;SDS011;5063;50.878;4.742;2022-09-09T05:56:04;6.37;;;2.90;;
10045;SDS011;5063;50.878;4.742;2022-09-09T05:58:39;7.20;;;2.90;;
10045;SDS011;5063;50.878;4.742;2022-09-09T06:01:06;10.20;;;2.90;;
10045;SDS011;5063;50.878;4.742;2022-09-09T06:03:38;5.87;;;2.40;;
10045;SDS011;5063;50.878;4.742;2022-09-09T06:06:06;5.03;;;2.60;;
10045;SDS011;5063;50.878;4.742;2022-09-09T06:08:43;10.30;;;2.77;;
10045;SDS011;5063;50.878;4.742;2022-09-09T06:11:11;7.20;;;2.63;;
10045;SDS011;5063;50.878;4.742;2022-09-09T06:13:39;4.17;;;2.03;;
10045;SDS011;5063;50.878;4.742;2022-09-09T06:16:09;9.90;;;2.50;;
10045;SDS011;5063;50.878;4.742;2022-09-09T06:18:36;8.70;;;2.37;;
10045;SDS011;5063;50.878;4.742;2022-09-09T06:21:04;8.63;;;2.93;;
10045;SDS011;5063;50.878;4.742;2022-09-09T06:23:32;7.10;;;2.47;;
10045;SDS011;5063;50.878;4.742;2022-09-09T06:26:04;7.00;;;2.30;;
10045;SDS011;5063;50.878;4.742;2022-09-09T06:28:32;6.07;;;2.47;;
10045;SDS011;5063;50.878;4.742;2022-09-09T06:31:08;5.87;;;2.47;;
10045;SDS011;5063;50.878;4.742;2022-09-09T06:34:29;6.63;;;2.20;;
10045;SDS011;5063;50.878;4.742;2022-09-09T06:37:56;12.43;;;2.20;;
10045;SDS011;5063;50.878;4.742;2022-09-09T06:41:38;9.90;;;2.70;;
10045;SDS011;5063;50.878;4.742;2022-09-09T06:44:49;8.87;;;2.63;;
10045;SDS011;5063;50.878;4.742;2022-09-09T06:48:05;7.43;;;2.93;;
10045;SDS011;5063;50.878;4.742;2022-09-09T06:51:18;9.03;;;2.80;;
10045;SDS011;5063;50.878;4.742;2022-09-09T06:54:18;9.77;;;2.57;;
10045;SDS011;5063;50.878;4.742;2022-09-09T06:57:40;5.67;;;2.87;;
10045;SDS011;5063;50.878;4.742;2022-09-09T07:10:22;6.63;;;2.33;;
10045;SDS011;5063;50.878;4.742;2022-09-09T07:13:35;4.70;;;2.20;;
10045;SDS011;5063;50.878;4.742;2022-09-09T07:16:59;6.30;;;2.10;;
10045;SDS011;5063;50.878;4.742;2022-09-09T07:20:01;6.50;;;2.40;;
10045;SDS011;5063;50.878;4.742;2022-09-09T07:22:38;11.30;;;1.97;;
10045;SDS011;5063;50.878;4.742;2022-09-09T07:25:10;9.53;;;2.53;;
10045;SDS011;5063;50.878;4.742;2022-09-09T07:27:39;10.13;;;3.03;;
10045;SDS011;5063;50.878;4.742;2022-09-09T07:30:20;5.77;;;1.90;;
10045;SDS011;5063;50.878;4.742;2022-09-09T07:33:00;4.10;;;2.10;;
10045;SDS011;5063;50.878;4.742;2022-09-09T07:38:56;8.37;;;2.70;;
10045;SDS011;5063;50.878;4.742;2022-09-09T07:41:45;5.57;;;2.13;;
10045;SDS011;5063;50.878;4.742;2022-09-09T07:44:18;8.40;;;2.30;;
10045;SDS011;5063;50.878;4.742;2022-09-09T07:47:01;5.30;;;2.03;;
10045;SDS011;5063;50.878;4.742;2022-09-09T07:49:46;7.30;;;1.80;;
10045;SDS011;5063;50.878;4.742;2022-09-09T07:52:15;6.73;;;2.40;;
10045;SDS011;5063;50.878;4.742;2022-09-09T07:54:45;7.73;;;2.47;;
10045;SDS011;5063;50.878;4.742;2022-09-09T07:57:11;9.20;;;2.43;;
10045;SDS011;5063;50.878;4.742;2022-09-09T07:59:40;6.40;;;2.07;;
10045;SDS011;5063;50.878;4.742;2022-09-09T08:02:06;6.27;;;2.00;;
10045;SDS011;5063;50.878;4.742;2022-09-09T08:04:34;6.37;;;2.13;;
10045;SDS011;5063;50.878;4.742;2022-09-09T08:07:00;5.50;;;2.17;;
10045;SDS011;5063;50.878;4.742;2022-09-09T08:09:28;5.50;;;1.83;;
10045;SDS011;5063;50.878;4.742;2022-09-09T08:11:55;11.37;;;2.30;;
10045;SDS011;5063;50.878;4.742;2022-09-09T08:14:22;6.20;;;2.00;;
10045;SDS011;5063;50.878;4.742;2022-09-09T08:16:48;11.20;;;1.73;;
10045;SDS011;5063;50.878;4.742;2022-09-09T08:19:15;6.20;;;2.40;;
10045;SDS011;5063;50.878;4.742;2022-09-09T08:21:42;3.20;;;1.80;;
10045;SDS011;5063;50.878;4.742;2022-09-09T08:24:09;7.33;;;2.10;;
10045;SDS011;5063;50.878;4.742;2022-09-09T08:26:37;5.00;;;1.70;;
10045;SDS011;5063;50.878;4.742;2022-09-09T08:29:05;7.27;;;2.07;;
10045;SDS011;5063;50.878;4.742;2022-09-09T08:31:36;3.77;;;1.70;;
10045;SDS011;5063;50.878;4.742;2022-09-09T08:34:04;6.37;;;2.20;;
10045;SDS011;5063;50.878;4.742;2022-09-09T08:36:42;8.40;;;2.30;;
10045;SDS011;5063;50.878;4.742;2022-09-09T08:39:10;4.03;;;1.67;;
10045;SDS011;5063;50.878;4.742;2022-09-09T08:47:53;10.10;;;2.00;;
10045;SDS011;5063;50.878;4.742;2022-09-09T08:50:39;7.30;;;2.03;;
10045;SDS011;5063;50.878;4.742;2022-09-09T08:53:11;6.30;;;2.00;;
10045;SDS011;5063;50.878;4.742;2022-09-09T08:55:59;5.50;;;1.50;;
10045;SDS011;5063;50.878;4.742;2022-09-09T08:58:32;5.90;;;2.13;;
10045;SDS011;5063;50.878;4.742;2022-09-09T09:06:35;7.53;;;2.60;;
10045;SDS011;5063;50.878;4.742;2022-09-09T09:09:31;7.67;;;1.97;;
10045;SDS011;5063;50.878;4.742;2022-09-09T09:12:17;5.33;;;1.90;;
10045;SDS011;5063;50.878;4.742;2022-09-09T09:14:51;7.10;;;2.33;;
10045;SDS011;5063;50.878;4.742;2022-09-09T09:17:21;8.73;;;2.40;;
10045;SDS011;5063;50.878;4.742;2022-09-09T09:19:50;6.67;;;2.17;;
10045;SDS011;5063;50.878;4.742;2022-09-09T09:22:18;5.77;;;2.30;;
10045;SDS011;5063;50.878;4.742;2022-09-09T09:24:54;7.20;;;2.60;;
10045;SDS011;5063;50.878;4.742;2022-09-09T09:29:52;5.87;;;2.37;;
10045;SDS011;5063;50.878;4.742;2022-09-09T09:32:22;11.93;;;2.57;;
10045;SDS011;5063;50.878;4.742;2022-09-09T09:34:55;6.73;;;2.37;;
10045;SDS011;5063;50.878;4.742;2022-09-09T09:37:26;7.10;;;2.57;;
10045;SDS011;5063;50.878;4.742;2022-09-09T09:40:16;6.73;;;2.50;;
10045;SDS011;5063;50.878;4.742;2022-09-09T09:42:48;4.37;;;2.10;;
10045;SDS011;5063;50.878;4.742;2022-09-09T09:47:58;5.17;;;1.93;;
10045;SDS011;5063;50.878;4.742;2022-09-09T09:50:24;6.00;;;2.30;;
10045;SDS011;5063;50.878;4.742;2022-09-09T09:52:54;3.13;;;2.10;;
10045;SDS011;5063;50.878;4.742;2022-09-09T09:55:22;10.30;;;2.47;;
10045;SDS011;5063;50.878;4.742;2022-09-09T09:57:49;6.83;;;2.43;;
10045;SDS011;5063;50.878;4.742;2022-09-09T10:00:16;7.93;;;2.53;;
10045;SDS011;5063;50.878;4.742;2022-09-09T10:02:44;8.93;;;2.63;;
10045;SDS011;5063;50.878;4.742;2022-09-09T10:05:18;6.77;;;2.13;;
10045;SDS011;5063;50.878;4.742;2022-09-09T10:19:15;9.63;;;2.13;;
10045;SDS011;5063;50.878;4.742;2022-09-09T10:35:40;7.07;;;2.23;;
10045;SDS011;5063;50.878;4.742;2022-09-09T10:43:29;5.87;;;2.17;;
10045;SDS011;5063;50.878;4.742;2022-09-09T10:49:16;3.87;;;1.77;;
10045;SDS011;5063;50.878;4.742;2022-09-09T10:54:57;7.40;;;2.20;;
10045;SDS011;5063;50.878;4.742;2022-09-09T11:00:10;5.50;;;2.30;;
10045;SDS011;5063;50.878;4.742;2022-09-09T11:02:42;6.40;;;1.77;;
10045;SDS011;5063;50.878;4.742;2022-09-09T11:05:21;4.97;;;2.30;;
10045;SDS011;5063;50.878;4.742;2022-09-09T11:08:01;9.87;;;2.40;;
10045;SDS011;5063;50.878;4.742;2022-09-09T11:13:55;7.00;;;2.33;;
10045;SDS011;5063;50.878;4.742;2022-09-09T11:21:59;11.07;;;2.87;;
10045;SDS011;5063;50.878;4.742;2022-09-09T11:27:28;5.60;;;2.40;;
10045;SDS011;5063;50.878;4.742;2022-09-09T11:38:19;6.93;;;2.13;;
10045;SDS011;5063;50.878;4.742;2022-09-09T11:40:47;6.95;;;2.00;;
10045;SDS011;5063;50.878;4.742;2022-09-09T11:45:52;4.57;;;1.50;;
10045;SDS011;5063;50.878;4.742;2022-09-09T11:51:01;8.73;;;1.87;;
10045;SDS011;5063;50.878;4.742;2022-09-09T11:53:48;3.60;;;1.40;;
10045;SDS011;5063;50.878;4.742;2022-09-09T11:56:41;5.00;;;1.67;;
10045;SDS011;5063;50.878;4.742;2022-09-09T11:59:28;3.93;;;1.63;;
10045;SDS011;5063;50.878;4.742;2022-09-09T12:01:59;4.60;;;1.90;;
10045;SDS011;5063;50.878;4.742;2022-09-09T12:04:38;4.22;;;1.88;;
10045;SDS011;5063;50.878;4.742;2022-09-09T12:10:04;3.63;;;1.33;;
10045;SDS011;5063;50.878;4.742;2022-09-09T12:12:45;4.70;;;1.60;;
10045;SDS011;5063;50.878;4.742;2022-09-09T12:17:44;5.40;;;1.83;;
10045;SDS011;5063;50.878;4.742;2022-09-09T12:31:33;3.93;;;1.50;;
10045;SDS011;5063;50.878;4.742;2022-09-09T12:34:17;4.05;;;1.38;;
10045;SDS011;5063;50.878;4.742;2022-09-09T12:36:54;5.13;;;1.67;;
10045;SDS011;5063;50.878;4.742;2022-09-09T12:41:56;5.25;;;1.63;;
10045;SDS011;5063;50.878;4.742;2022-09-09T12:44:25;6.13;;;1.65;;
10045;SDS011;5063;50.878;4.742;2022-09-09T12:46:53;6.03;;;2.20;;
10045;SDS011;5063;50.878;4.742;2022-09-09T12:51:56;4.45;;;1.92;;
10045;SDS011;5063;50.878;4.742;2022-09-09T12:54:22;2.47;;;1.48;;
10045;SDS011;5063;50.878;4.742;2022-09-09T12:56:48;4.90;;;1.27;;
10045;SDS011;5063;50.878;4.742;2022-09-09T12:59:21;3.03;;;1.40;;
10045;SDS011;5063;50.878;4.742;2022-09-09T13:02:01;4.80;;;1.50;;
10045;SDS011;5063;50.878;4.742;2022-09-09T13:04:27;3.65;;;1.25;;
10045;SDS011;5063;50.878;4.742;2022-09-09T13:06:53;3.78;;;1.40;;
10045;SDS011;5063;50.878;4.742;2022-09-09T13:09:29;3.47;;;1.48;;
10045;SDS011;5063;50.878;4.742;2022-09-09T13:11:55;5.50;;;1.77;;
10045;SDS011;5063;50.878;4.742;2022-09-09T13:14:30;4.45;;;1.88;;
10045;SDS011;5063;50.878;4.742;2022-09-09T13:17:00;4.20;;;1.42;;
10045;SDS011;5063;50.878;4.742;2022-09-09T13:19:37;4.65;;;1.45;;
10045;SDS011;5063;50.878;4.742;2022-09-09T13:24:40;2.30;;;1.20;;
10045;SDS011;5063;50.878;4.742;2022-09-09T13:35:30;3.35;;;1.20;;
10045;SDS011;5063;50.878;4.742;2022-09-09T13:37:56;3.83;;;1.20;;
10045;SDS011;5063;50.878;4.742;2022-09-09T13:40:23;2.58;;;1.10;;
10045;SDS011;5063;50.878;4.742;2022-09-09T13:42:56;3.45;;;1.30;;
10045;SDS011;5063;50.878;4.742;2022-09-09T13:45:24;3.50;;;1.45;;
10045;SDS011;5063;50.878;4.742;2022-09-09T13:47:54;4.03;;;1.20;;
10045;SDS011;5063;50.878;4.742;2022-09-09T13:50:22;5.05;;;1.50;;
10045;SDS011;5063;50.878;4.742;2022-09-09T13:52:50;2.47;;;1.17;;
10045;SDS011;5063;50.878;4.742;2022-09-09T13:55:20;3.38;;;1.27;;
10045;SDS011;5063;50.878;4.742;2022-09-09T13:57:55;2.95;;;1.25;;
10045;SDS011;5063;50.878;4.742;2022-09-09T14:00:26;3.00;;;1.52;;
10045;SDS011;5063;50.878;4.742;2022-09-09T14:02:53;3.55;;;1.38;;
10045;SDS011;5063;50.878;4.742;2022-09-09T14:05:20;3.00;;;1.20;;
10045;SDS011;5063;50.878;4.742;2022-09-09T14:07:47;4.75;;;1.73;;
10045;SDS011;5063;50.878;4.742;2022-09-09T14:10:14;3.50;;;1.38;;
10045;SDS011;5063;50.878;4.742;2022-09-09T14:12:40;1.42;;;1.00;;
10045;SDS011;5063;50.878;4.742;2022-09-09T14:15:07;1.30;;;0.93;;
10045;SDS011;5063;50.878;4.742;2022-09-09T14:17:35;1.35;;;0.77;;
10045;SDS011;5063;50.878;4.742;2022-09-09T14:20:02;3.53;;;1.00;;
10045;SDS011;5063;50.878;4.742;2022-09-09T14:22:33;4.15;;;1.58;;
10045;SDS011;5063;50.878;4.742;2022-09-09T14:24:59;1.05;;;0.95;;
10045;SDS011;5063;50.878;4.742;2022-09-09T14:27:24;2.05;;;1.30;;
10045;SDS011;5063;50.878;4.742;2022-09-09T14:29:51;2.55;;;1.20;;
10045;SDS011;5063;50.878;4.742;2022-09-09T14:32:19;2.88;;;1.20;;
10045;SDS011;5063;50.878;4.742;2022-09-09T14:34:44;3.78;;;1.30;;
10045;SDS011;5063;50.878;4.742;2022-09-09T14:37:10;1.75;;;1.27;;
10045;SDS011;5063;50.878;4.742;2022-09-09T14:39:36;4.88;;;1.00;;
10045;SDS011;5063;50.878;4.742;2022-09-09T14:42:01;1.65;;;1.10;;
10045;SDS011;5063;50.878;4.742;2022-09-09T14:44:27;3.00;;;1.37;;
10045;SDS011;5063;50.878;4.742;2022-09-09T14:46:54;4.13;;;1.58;;
10045;SDS011;5063;50.878;4.742;2022-09-09T14:49:19;2.88;;;1.35;;
10045;SDS011;5063;50.878;4.742;2022-09-09T14:51:45;5.40;;;1.50;;
10045;SDS011;5063;50.878;4.742;2022-09-09T14:54:11;3.50;;;1.33;;
10045;SDS011;5063;50.878;4.742;2022-09-09T14:56:37;4.03;;;1.13;;
10045;SDS011;5063;50.878;4.742;2022-09-09T14:59:03;3.60;;;1.25;;
10045;SDS011;5063;50.878;4.742;2022-09-09T15:01:29;3.22;;;1.15;;
10045;SDS011;5063;50.878;4.742;2022-09-09T15:04:00;3.75;;;1.33;;
10045;SDS011;5063;50.878;4.742;2022-09-09T15:06:28;3.67;;;1.67;;
10045;SDS011;5063;50.878;4.742;2022-09-09T15:08:58;3.03;;;1.42;;
10045;SDS011;5063;50.878;4.742;2022-09-09T15:11:28;3.42;;;1.52;;
10045;SDS011;5063;50.878;4.742;2022-09-09T15:13:55;3.50;;;1.40;;
10045;SDS011;5063;50.878;4.742;2022-09-09T15:16:23;2.65;;;1.15;;
10045;SDS011;5063;50.878;4.742;2022-09-09T15:18:51;4.93;;;1.38;;
10045;SDS011;5063;50.878;4.742;2022-09-09T15:21:19;3.92;;;1.30;;
10045;SDS011;5063;50.878;4.742;2022-09-09T15:23:46;3.17;;;1.33;;
10045;SDS011;5063;50.878;4.742;2022-09-09T15:26:13;3.10;;;1.30;;
10045;SDS011;5063;50.878;4.742;2022-09-09T15:28:40;2.90;;;1.40;;
10045;SDS011;5063;50.878;4.742;2022-09-09T15:31:09;4.32;;;1.50;;
10045;SDS011;5063;50.878;4.742;2022-09-09T15:33:37;2.67;;;1.60;;
10045;SDS011;5063;50.878;4.742;2022-09-09T15:39:03;3.45;;;1.30;;
10045;SDS011;5063;50.878;4.742;2022-09-09T15:41:30;4.65;;;1.40;;
10045;SDS011;5063;50.878;4.742;2022-09-09T15:43:56;1.80;;;1.10;;
10045;SDS011;5063;50.878;4.742;2022-09-09T15:48:56;1.67;;;0.98;;
10045;SDS011;5063;50.878;4.742;2022-09-09T15:51:47;4.45;;;1.38;;
10045;SDS011;5063;50.878;4.742;2022-09-09T15:54:20;3.53;;;1.40;;
10045;SDS011;5063;50.878;4.742;2022-09-09T15:56:53;4.30;;;1.60;;
10045;SDS011;5063;50.878;4.742;2022-09-09T15:59:21;2.28;;;1.10;;
10045;SDS011;5063;50.878;4.742;2022-09-09T16:01:48;2.28;;;1.20;;
10045;SDS011;5063;50.878;4.742;2022-09-09T16:04:17;4.60;;;1.30;;
10045;SDS011;5063;50.878;4.742;2022-09-09T16:06:55;3.35;;;1.38;;
10045;SDS011;5063;50.878;4.742;2022-09-09T16:09:24;2.83;;;1.30;;
10045;SDS011;5063;50.878;4.742;2022-09-09T16:11:50;3.72;;;1.23;;
10045;SDS011;5063;50.878;4.742;2022-09-09T16:14:18;4.60;;;1.48;;
10045;SDS011;5063;50.878;4.742;2022-09-09T16:16:44;1.98;;;1.38;;
10045;SDS011;5063;50.878;4.742;2022-09-09T16:19:10;5.43;;;1.27;;
10045;SDS011;5063;50.878;4.742;2022-09-09T16:21:39;2.47;;;1.23;;
10045;SDS011;5063;50.878;4.742;2022-09-09T16:24:07;2.80;;;1.20;;
10045;SDS011;5063;50.878;4.742;2022-09-09T16:26:35;2.28;;;1.45;;
10045;SDS011;5063;50.878;4.742;2022-09-09T16:29:03;3.00;;;1.23;;
10045;SDS011;5063;50.878;4.742;2022-09-09T16:31:29;3.70;;;1.40;;
10045;SDS011;5063;50.878;4.742;2022-09-09T16:33:57;2.90;;;1.30;;
10045;SDS011;5063;50.878;4.742;2022-09-09T16:36:30;3.33;;;1.85;;
10045;SDS011;5063;50.878;4.742;2022-09-09T16:38:59;2.83;;;1.40;;
10045;SDS011;5063;50.878;4.742;2022-09-09T16:41:27;4.43;;;1.58;;
10045;SDS011;5063;50.878;4.742;2022-09-09T16:43:55;5.32;;;1.40;;
10045;SDS011;5063;50.878;4.742;2022-09-09T16:46:22;4.33;;;1.73;;
10045;SDS011;5063;50.878;4.742;2022-09-09T16:48:49;2.55;;;1.30;;
10045;SDS011;5063;50.878;4.742;2022-09-09T16:51:16;2.37;;;1.57;;
10045;SDS011;5063;50.878;4.742;2022-09-09T16:53:43;3.87;;;1.43;;
10045;SDS011;5063;50.878;4.742;2022-09-09T16:56:11;3.23;;;1.50;;
10045;SDS011;5063;50.878;4.742;2022-09-09T16:58:39;6.70;;;1.60;;
10045;SDS011;5063;50.878;4.742;2022-09-09T17:01:05;4.50;;;1.77;;
10045;SDS011;5063;50.878;4.742;2022-09-09T17:03:31;2.87;;;1.47;;
10045;SDS011;5063;50.878;4.742;2022-09-09T17:05:58;3.97;;;1.80;;
10045;SDS011;5063;50.878;4.742;2022-09-09T17:08:28;2.13;;;1.70;;
10045;SDS011;5063;50.878;4.742;2022-09-09T17:10:57;1.10;;;0.97;;
10045;SDS011;5063;50.878;4.742;2022-09-09T17:13:23;1.83;;;1.17;;
10045;SDS011;5063;50.878;4.742;2022-09-09T17:15:50;3.60;;;1.30;;
10045;SDS011;5063;50.878;4.742;2022-09-09T17:18:16;2.07;;;1.23;;
10045;SDS011;5063;50.878;4.742;2022-09-09T17:24:38;2.27;;;1.00;;
10045;SDS011;5063;50.878;4.742;2022-09-09T17:27:39;3.17;;;1.40;;
10045;SDS011;5063;50.878;4.742;2022-09-09T17:30:05;1.90;;;0.90;;
10045;SDS011;5063;50.878;4.742;2022-09-09T17:32:31;3.07;;;1.47;;
10045;SDS011;5063;50.878;4.742;2022-09-09T17:34:57;1.93;;;1.37;;
10045;SDS011;5063;50.878;4.742;2022-09-09T17:37:22;1.43;;;1.13;;
10045;SDS011;5063;50.878;4.742;2022-09-09T17:39:48;1.77;;;1.17;;
10045;SDS011;5063;50.878;4.742;2022-09-09T17:42:14;3.03;;;1.43;;
10045;SDS011;5063;50.878;4.742;2022-09-09T17:44:40;2.37;;;1.20;;
10045;SDS011;5063;50.878;4.742;2022-09-09T17:47:06;1.53;;;1.10;;
10045;SDS011;5063;50.878;4.742;2022-09-09T17:49:32;1.83;;;1.27;;
10045;SDS011;5063;50.878;4.742;2022-09-09T17:51:58;1.90;;;1.10;;
10045;SDS011;5063;50.878;4.742;2022-09-09T17:54:24;1.73;;;1.37;;
10045;SDS011;5063;50.878;4.742;2022-09-09T17:56:50;2.53;;;1.33;;
10045;SDS011;5063;50.878;4.742;2022-09-09T17:59:17;4.03;;;1.57;;
10045;SDS011;5063;50.878;4.742;2022-09-09T18:01:44;4.63;;;1.13;;
10045;SDS011;5063;50.878;4.742;2022-09-09T18:04:12;3.70;;;1.53;;
10045;SDS011;5063;50.878;4.742;2022-09-09T18:06:41;3.30;;;1.40;;
10045;SDS011;5063;50.878;4.742;2022-09-09T18:09:09;3.63;;;1.57;;
10045;SDS011;5063;50.878;4.742;2022-09-09T18:11:47;4.40;;;1.40;;
10045;SDS011;5063;50.878;4.742;2022-09-09T18:14:15;5.77;;;1.60;;
10045;SDS011;5063;50.878;4.742;2022-09-09T18:16:44;2.10;;;1.40;;
10045;SDS011;5063;50.878;4.742;2022-09-09T18:19:11;2.30;;;1.17;;
10045;SDS011;5063;50.878;4.742;2022-09-09T18:21:40;3.60;;;1.50;;
10045;SDS011;5063;50.878;4.742;2022-09-09T18:24:09;2.57;;;1.30;;
10045;SDS011;5063;50.878;4.742;2022-09-09T18:26:36;5.83;;;1.60;;
10045;SDS011;5063;50.878;4.742;2022-09-09T18:29:05;3.43;;;1.50;;
10045;SDS011;5063;50.878;4.742;2022-09-09T18:31:32;2.20;;;1.40;;
10045;SDS011;5063;50.878;4.742;2022-09-09T18:34:00;5.73;;;2.07;;
10045;SDS011;5063;50.878;4.742;2022-09-09T18:36:28;6.17;;;1.70;;
10045;SDS011;5063;50.878;4.742;2022-09-09T18:38:58;5.23;;;1.60;;
10045;SDS011;5063;50.878;4.742;2022-09-09T18:41:27;4.47;;;2.17;;
10045;SDS011;5063;50.878;4.742;2022-09-09T18:43:57;4.97;;;2.13;;